createdAt,value
2022-11-07T00:01:21.275Z,98.48
2022-11-07T00:03:48.086Z,98.22
2022-11-07T00:06:15.161Z,98.79
2022-11-07T00:08:41.877Z,98.57
2022-11-07T00:11:08.529Z,98.65
2022-11-07T00:13:35.232Z,99.08
2022-11-07T00:16:04.729Z,98.84
2022-11-07T00:18:31.553Z,99.08
2022-11-07T00:21:05.967Z,98.97
2022-11-07T00:23:33.107Z,98.91
2022-11-07T00:26:11.162Z,98.83
2022-11-07T00:28:39.031Z,98.93
2022-11-07T00:31:07.515Z,99.08
2022-11-07T00:33:34.389Z,99.12
2022-11-07T00:36:01.106Z,99.55
2022-11-07T00:38:28.062Z,99.06
2022-11-07T00:41:03.257Z,99.45
2022-11-07T00:43:30.947Z,98.98
2022-11-07T00:45:58.021Z,98.84
2022-11-07T00:48:24.708Z,98.43
2022-11-07T00:50:51.481Z,98.45
2022-11-07T00:53:18.308Z,98.60
2022-11-07T00:55:45.558Z,98.35
2022-11-07T00:58:14.736Z,98.61
2022-11-07T01:00:42.376Z,98.07
2022-11-07T01:03:27.645Z,98.54
2022-11-07T01:06:03.101Z,98.39
2022-11-07T01:08:30.778Z,98.31
2022-11-07T01:10:59.472Z,98.27
2022-11-07T01:13:26.829Z,98.03
2022-11-07T01:15:53.984Z,97.82
2022-11-07T01:18:21.165Z,98.40
2022-11-07T01:20:49.718Z,98.35
2022-11-07T01:23:18.473Z,98.66
2022-11-07T01:25:46.152Z,98.48
2022-11-07T01:28:12.965Z,98.80
2022-11-07T01:30:44.878Z,98.79
2022-11-07T01:33:12.338Z,98.49
2022-11-07T01:35:40.048Z,98.52
2022-11-07T01:38:07.094Z,98.51
2022-11-07T01:40:53.861Z,98.05
2022-11-07T01:43:20.591Z,98.23
2022-11-07T01:45:47.300Z,97.85
2022-11-07T01:48:14.144Z,97.90
2022-11-07T01:50:40.974Z,97.84
2022-11-07T01:53:07.806Z,97.46
2022-11-07T01:55:35.849Z,96.14
2022-11-07T01:58:07.367Z,96.90
2022-11-07T02:00:35.528Z,97.31
2022-11-07T02:03:07.650Z,97.13
2022-11-07T02:05:48.374Z,97.00
2022-11-07T02:08:17.060Z,96.62
2022-11-07T02:10:44.494Z,96.68
2022-11-07T02:13:18.009Z,96.58
2022-11-07T02:15:44.897Z,96.81
2022-11-07T02:18:11.764Z,96.61
2022-11-07T02:20:38.539Z,96.91
2022-11-07T02:23:26.490Z,97.69
2022-11-07T02:25:54.051Z,97.30
2022-11-07T02:28:24.190Z,97.03
2022-11-07T02:30:50.989Z,97.39
2022-11-07T02:33:23.300Z,97.37
2022-11-07T02:35:52.265Z,97.72
2022-11-07T02:38:21.802Z,97.69
2022-11-07T02:40:55.530Z,97.94
2022-11-07T02:43:26.949Z,98.19
2022-11-07T02:45:55.633Z,98.52
2022-11-07T02:48:22.220Z,98.56
2022-11-07T02:50:48.884Z,98.94
2022-11-07T02:53:15.926Z,99.06
2022-11-07T02:55:43.011Z,98.97
2022-11-07T02:58:09.820Z,99.17
2022-11-07T03:00:36.494Z,99.42
2022-11-07T03:03:03.282Z,99.35
2022-11-07T03:05:29.968Z,99.79
2022-11-07T03:07:56.641Z,99.35
2022-11-07T03:10:23.335Z,99.74
2022-11-07T03:12:50.093Z,99.80
2022-11-07T03:15:16.722Z,99.93
2022-11-07T03:17:43.463Z,100.07
2022-11-07T03:20:10.843Z,99.86
2022-11-07T03:22:37.792Z,100.19
2022-11-07T03:25:06.074Z,100.18
2022-11-07T03:27:32.771Z,100.05
2022-11-07T03:29:59.534Z,100.32
2022-11-07T03:32:26.253Z,100.26
2022-11-07T03:34:52.845Z,100.40
2022-11-07T03:37:19.517Z,100.56
2022-11-07T03:39:46.192Z,100.69
2022-11-07T03:42:12.984Z,100.74
2022-11-07T03:44:40.483Z,100.99
2022-11-07T03:47:07.218Z,101.15
2022-11-07T03:49:33.883Z,101.40
2022-11-07T03:52:00.842Z,101.12
2022-11-07T03:54:30.421Z,101.22
2022-11-07T03:56:57.130Z,101.14
2022-11-07T03:59:23.997Z,101.28
2022-11-07T04:01:50.671Z,100.62
2022-11-07T04:04:17.520Z,101.15
2022-11-07T04:06:44.248Z,100.99
2022-11-07T04:09:10.921Z,101.25
2022-11-07T04:12:11.230Z,101.29
2022-11-07T04:14:56.350Z,101.26
2022-11-07T04:17:23.175Z,101.25
2022-11-07T04:19:52.470Z,101.44
2022-11-07T04:22:19.468Z,101.22
2022-11-07T04:24:46.609Z,101.38
2022-11-07T04:27:33.579Z,101.44
2022-11-07T04:30:18.897Z,101.29
2022-11-07T04:32:51.071Z,101.30
2022-11-07T04:35:19.381Z,101.19
2022-11-07T04:37:47.115Z,101.19
2022-11-07T04:40:14.738Z,101.37
2022-11-07T04:42:41.679Z,101.57
2022-11-07T04:45:09.166Z,101.70
2022-11-07T04:47:40.227Z,101.87
2022-11-07T04:50:10.504Z,101.92
2022-11-07T04:52:37.537Z,101.91
2022-11-07T04:55:05.832Z,101.71
2022-11-07T04:57:32.588Z,102.10
2022-11-07T04:59:59.322Z,102.02
2022-11-07T05:02:26.395Z,101.97
2022-11-07T05:04:53.539Z,101.89
2022-11-07T05:07:20.856Z,101.96
2022-11-07T05:09:47.741Z,102.17
2022-11-07T05:12:14.389Z,102.05
2022-11-07T05:14:41.171Z,102.33
2022-11-07T05:17:07.992Z,102.07
2022-11-07T05:19:34.620Z,102.69
2022-11-07T05:22:24.374Z,102.15
2022-11-07T05:24:51.025Z,102.66
2022-11-07T05:27:19.767Z,102.86
2022-11-07T05:29:47.140Z,102.88
2022-11-07T05:32:14.739Z,102.98
2022-11-07T05:34:41.472Z,102.68
2022-11-07T05:37:09.255Z,103.12
2022-11-07T05:39:36.985Z,103.05
2022-11-07T05:42:04.272Z,103.21
2022-11-07T05:44:31.554Z,103.12
2022-11-07T05:46:58.280Z,102.99
2022-11-07T05:49:25.578Z,103.11
2022-11-07T05:51:52.967Z,103.38
2022-11-07T05:54:19.837Z,103.49
2022-11-07T05:56:46.615Z,103.62
2022-11-07T05:59:13.849Z,103.43
2022-11-07T06:01:40.809Z,103.34
2022-11-07T06:04:08.126Z,103.33
2022-11-07T06:06:34.967Z,103.43
2022-11-07T06:09:01.704Z,103.29
2022-11-07T06:11:28.683Z,103.47
2022-11-07T06:13:55.548Z,103.70
2022-11-07T06:16:22.303Z,103.86
2022-11-07T06:18:49.158Z,104.06
2022-11-07T06:21:16.837Z,104.11
2022-11-07T06:23:43.716Z,104.08
2022-11-07T06:26:10.635Z,103.83
2022-11-07T06:28:37.426Z,103.76
2022-11-07T06:31:05.432Z,103.50
2022-11-07T06:33:32.583Z,103.63
2022-11-07T06:36:07.281Z,103.66
2022-11-07T06:38:34.229Z,103.91
2022-11-07T06:41:06.729Z,104.23
2022-11-07T06:43:34.766Z,104.14
2022-11-07T06:46:07.058Z,103.95
2022-11-07T06:48:33.917Z,104.24
2022-11-07T06:51:02.343Z,103.99
2022-11-07T06:53:29.707Z,103.77
2022-11-07T06:56:00.095Z,103.98
2022-11-07T06:58:26.892Z,103.95
2022-11-07T07:01:05.295Z,104.20
2022-11-07T07:03:32.359Z,104.15
2022-11-07T07:06:06.287Z,104.19
2022-11-07T07:08:33.774Z,104.65
2022-11-07T07:11:09.359Z,104.76
2022-11-07T07:13:36.569Z,104.67
2022-11-07T07:16:04.174Z,104.94
2022-11-07T07:18:31.178Z,104.90
2022-11-07T07:21:20.806Z,105.22
2022-11-07T07:23:47.462Z,105.24
2022-11-07T07:26:16.414Z,104.98
2022-11-07T07:28:44.315Z,104.65
2022-11-07T07:31:13.981Z,104.37
2022-11-07T07:33:45.050Z,104.33
2022-11-07T07:36:17.782Z,103.93
2022-11-07T07:38:47.081Z,104.08
2022-11-07T07:41:13.882Z,103.79
2022-11-07T07:43:40.825Z,103.83
2022-11-07T07:46:08.584Z,103.49
2022-11-07T07:48:35.327Z,103.21
2022-11-07T07:51:02.105Z,102.98
2022-11-07T07:53:29.078Z,102.88
2022-11-07T07:55:58.039Z,102.09
2022-11-07T07:58:25.587Z,101.60
2022-11-07T08:00:53.765Z,101.64
2022-11-07T08:03:20.837Z,101.54
2022-11-07T08:05:53.696Z,101.52
2022-11-07T08:08:20.885Z,101.09
2022-11-07T08:10:53.462Z,100.89
2022-11-07T08:13:22.273Z,100.89
2022-11-07T08:15:49.236Z,100.13
2022-11-07T08:18:16.097Z,100.25
2022-11-07T08:20:42.842Z,99.56
2022-11-07T08:23:16.090Z,99.60
2022-11-07T08:25:52.118Z,99.28
2022-11-07T08:28:20.123Z,98.33
2022-11-07T08:30:53.836Z,97.78
2022-11-07T08:33:20.666Z,97.00
2022-11-07T08:35:47.478Z,95.87
2022-11-07T08:38:14.225Z,95.29
2022-11-07T08:40:41.069Z,97.23
2022-11-07T08:43:07.719Z,93.33
2022-11-07T08:45:34.595Z,91.84
2022-11-07T08:48:01.268Z,90.02
2022-11-07T08:50:28.009Z,90.68
2022-11-07T08:52:59.590Z,89.54
2022-11-07T08:55:29.267Z,87.75
2022-11-07T08:58:04.611Z,86.64
2022-11-07T09:00:32.358Z,85.88
2022-11-07T09:05:57.774Z,85.51
2022-11-07T09:08:24.535Z,83.87
2022-11-07T09:10:51.234Z,81.05
2022-11-07T09:13:19.299Z,81.51
2022-11-07T09:15:50.584Z,81.78
2022-11-07T09:18:18.970Z,80.20
2022-11-07T09:20:45.647Z,78.41
2022-11-07T09:23:12.419Z,80.12
2022-11-07T09:25:39.035Z,80.98
2022-11-07T09:28:05.844Z,81.60
2022-11-07T09:30:32.678Z,82.77
2022-11-07T09:32:59.777Z,81.92
2022-11-07T09:35:27.130Z,81.61
2022-11-07T09:37:54.072Z,81.63
2022-11-07T09:40:41.707Z,84.58
2022-11-07T09:43:34.112Z,85.09
2022-11-07T09:46:15.068Z,83.27
2022-11-07T09:48:46.375Z,85.38
2022-11-07T09:51:20.687Z,86.25
2022-11-07T09:53:54.434Z,89.18
2022-11-07T09:56:21.646Z,89.34
2022-11-07T09:58:54.697Z,86.58
2022-11-07T10:01:22.336Z,87.99
2022-11-07T10:04:18.133Z,86.13
2022-11-07T10:07:05.089Z,87.41
2022-11-07T10:09:40.286Z,90.28
2022-11-07T10:12:41.711Z,89.31
2022-11-07T10:15:23.226Z,88.94
2022-11-07T10:17:58.942Z,89.76
2022-11-07T10:21:05.422Z,90.96
2022-11-07T10:24:02.575Z,91.39
2022-11-07T10:26:31.376Z,90.97
2022-11-07T10:29:02.604Z,91.76
2022-11-07T10:31:36.033Z,91.41
2022-11-07T10:34:07.374Z,91.76
2022-11-07T10:36:34.278Z,92.01
2022-11-07T10:39:01.787Z,92.50
2022-11-07T10:41:31.818Z,92.33
2022-11-07T10:44:04.671Z,91.57
2022-11-07T10:46:47.794Z,91.04
2022-11-07T10:49:27.491Z,90.47
2022-11-07T10:51:55.791Z,87.78
2022-11-07T10:54:29.204Z,85.03
2022-11-07T10:57:09.769Z,85.02
2022-11-07T10:59:40.122Z,81.71
2022-11-07T11:02:17.344Z,79.68
2022-11-07T11:04:51.175Z,77.81
2022-11-07T11:07:21.846Z,77.21
2022-11-07T11:09:54.388Z,74.30
2022-11-07T11:12:26.652Z,78.24
2022-11-07T11:15:14.573Z,73.72
2022-11-07T11:17:41.592Z,80.46
2022-11-07T11:20:31.212Z,80.83
2022-11-07T11:23:00.066Z,83.63
2022-11-07T11:25:26.842Z,80.30
2022-11-07T11:28:05.146Z,81.68
2022-11-07T11:30:33.810Z,85.23
2022-11-07T11:33:06.277Z,85.42
2022-11-07T11:35:49.407Z,86.59
2022-11-07T11:38:33.271Z,87.19
2022-11-07T11:41:10.941Z,88.33
2022-11-07T11:43:46.588Z,88.69
2022-11-07T11:46:25.457Z,89.64
2022-11-07T11:49:11.932Z,90.23
2022-11-07T11:51:40.532Z,89.97
2022-11-07T11:54:12.226Z,90.29
2022-11-07T11:56:54.778Z,90.36
2022-11-07T11:59:39.584Z,90.56
2022-11-07T12:02:44.156Z,89.87
2022-11-07T12:05:35.699Z,89.49
2022-11-07T12:08:20.644Z,89.95
2022-11-07T12:10:53.321Z,89.92
2022-11-07T12:13:26.610Z,91.34
2022-11-07T12:16:31.143Z,91.41
2022-11-07T12:19:13.476Z,92.28
2022-11-07T12:22:08.729Z,92.69
2022-11-07T12:25:04.774Z,92.92
2022-11-07T12:27:57.643Z,93.37
2022-11-07T12:30:36.567Z,93.88
2022-11-07T12:33:41.224Z,93.75
2022-11-07T12:36:22.736Z,93.75
2022-11-07T12:38:58.565Z,94.14
2022-11-07T12:41:41.574Z,94.37
2022-11-07T12:44:17.152Z,93.72
2022-11-07T12:46:52.086Z,94.10
2022-11-07T12:49:36.220Z,94.43
2022-11-07T12:52:11.279Z,94.48
2022-11-07T12:54:41.402Z,94.80
2022-11-07T12:57:21.698Z,94.56
2022-11-07T12:59:54.331Z,94.32
2022-11-07T13:02:26.993Z,94.52
2022-11-07T13:05:15.323Z,94.22
2022-11-07T13:07:57.320Z,94.23
2022-11-07T13:10:36.482Z,94.34
2022-11-07T13:13:11.120Z,94.27
2022-11-07T13:16:09.082Z,93.92
2022-11-07T13:18:27.561Z,93.59
2022-11-07T13:21:02.624Z,93.58
2022-11-07T13:23:29.764Z,93.78
2022-11-07T13:26:20.288Z,93.33
2022-11-07T13:29:00.842Z,93.55
2022-11-07T13:31:38.488Z,93.49
2022-11-07T13:34:20.536Z,93.90
2022-11-07T13:36:49.872Z,93.70
2022-11-07T13:39:18.384Z,93.98
2022-11-07T13:41:46.254Z,93.78
2022-11-07T13:44:38.050Z,94.06
2022-11-07T13:47:13.460Z,93.88
2022-11-07T13:49:46.447Z,93.91
2022-11-07T13:52:45.194Z,94.50
2022-11-07T13:55:17.511Z,94.79
2022-11-07T13:57:52.194Z,95.12
2022-11-07T14:00:21.148Z,95.42
2022-11-07T14:02:56.460Z,95.78
2022-11-07T14:05:27.314Z,95.56
2022-11-07T14:07:59.589Z,96.10
2022-11-07T14:10:37.835Z,96.23
2022-11-07T14:13:07.319Z,96.28
2022-11-07T14:15:36.155Z,96.70
2022-11-07T14:18:03.589Z,96.03
2022-11-07T14:20:30.304Z,96.08
2022-11-07T14:23:00.658Z,96.18
2022-11-07T14:25:32.753Z,95.27
2022-11-07T14:28:00.834Z,95.65
2022-11-07T14:30:30.556Z,95.66
2022-11-07T14:33:02.226Z,94.99
2022-11-07T14:35:37.045Z,95.65
2022-11-07T14:38:16.390Z,95.49
2022-11-07T14:40:43.478Z,95.69
2022-11-07T14:43:15.709Z,95.68
2022-11-07T14:48:31.329Z,96.00
2022-11-07T14:50:59.872Z,95.82
2022-11-07T14:53:41.481Z,95.64
2022-11-07T14:56:12.282Z,96.15
2022-11-07T14:58:39.266Z,96.28
2022-11-07T15:01:06.030Z,96.42
2022-11-07T15:03:36.607Z,96.38
2022-11-07T15:06:04.038Z,96.24
2022-11-07T15:08:36.670Z,96.23
2022-11-07T15:11:07.682Z,96.39
2022-11-07T15:13:35.280Z,96.67
2022-11-07T15:16:12.298Z,96.68
2022-11-07T15:18:42.254Z,96.85
2022-11-07T15:21:13.522Z,96.96
2022-11-07T15:23:40.408Z,96.96
2022-11-07T15:26:07.051Z,97.03
2022-11-07T15:28:42.917Z,97.20
2022-11-07T15:31:21.945Z,97.24
2022-11-07T15:33:48.960Z,96.92
2022-11-07T15:36:16.391Z,97.31
2022-11-07T15:38:44.101Z,97.29
2022-11-07T15:41:12.145Z,97.83
2022-11-07T15:43:38.973Z,98.68
2022-11-07T15:46:22.177Z,99.83
2022-11-07T15:48:49.188Z,103.29
2022-11-07T15:51:16.040Z,105.77
2022-11-07T15:53:42.874Z,108.53
2022-11-07T15:56:19.261Z,110.25
2022-11-07T15:58:46.239Z,110.74
2022-11-07T16:01:13.108Z,111.94
2022-11-07T16:03:39.953Z,111.77
2022-11-07T16:06:35.748Z,112.03
2022-11-07T16:09:04.776Z,111.87
2022-11-07T16:11:31.432Z,111.49
2022-11-07T16:14:29.325Z,110.94
2022-11-07T16:16:48.370Z,111.07
2022-11-07T16:19:22.154Z,110.29
2022-11-07T16:21:48.889Z,110.64
2022-11-07T16:24:18.410Z,110.11
2022-11-07T16:26:47.186Z,109.87
2022-11-07T16:29:14.306Z,109.70
2022-11-07T16:31:41.504Z,109.55
2022-11-07T16:34:11.953Z,109.79
2022-11-07T16:36:39.889Z,109.01
2022-11-07T16:39:08.071Z,110.13
2022-11-07T16:41:34.868Z,109.43
2022-11-07T16:44:02.161Z,109.72
2022-11-07T16:46:35.289Z,109.75
2022-11-07T16:49:30.714Z,109.57
2022-11-07T16:51:58.067Z,109.75
2022-11-07T16:54:25.097Z,109.75
2022-11-07T16:56:52.992Z,109.92
2022-11-07T16:59:22.507Z,110.18
2022-11-07T17:01:53.119Z,110.68
2022-11-07T17:04:19.998Z,110.65
2022-11-07T17:06:47.598Z,110.51
2022-11-07T17:09:16.845Z,111.10
2022-11-07T17:11:44.624Z,111.45
2022-11-07T17:14:11.588Z,111.84
2022-11-07T17:16:40.172Z,111.84
2022-11-07T17:19:07.071Z,111.69
2022-11-07T17:21:37.872Z,112.18
2022-11-07T17:24:05.281Z,112.44
2022-11-07T17:26:35.607Z,112.48
2022-11-07T17:29:03.346Z,112.67
2022-11-07T17:31:30.026Z,112.81
2022-11-07T17:33:56.921Z,113.18
2022-11-07T17:36:37.857Z,113.16
2022-11-07T17:39:11.369Z,113.45
2022-11-07T17:41:39.926Z,113.53
2022-11-07T17:44:07.077Z,113.78
2022-11-07T17:46:35.222Z,113.84
2022-11-07T17:49:04.346Z,113.88
2022-11-07T17:51:31.526Z,113.70
2022-11-07T17:53:58.803Z,113.45
2022-11-07T17:56:30.645Z,113.45
2022-11-07T17:59:03.072Z,113.55
2022-11-07T18:01:41.655Z,113.27
2022-11-07T18:04:10.677Z,113.33
2022-11-07T18:06:39.871Z,113.14
2022-11-07T18:09:07.844Z,113.18
2022-11-07T18:11:35.392Z,112.85
2022-11-07T18:14:02.526Z,112.67
2022-11-07T18:16:32.158Z,112.23
2022-11-07T18:19:00.262Z,112.02
2022-11-07T18:21:30.429Z,111.85
2022-11-07T18:23:57.606Z,111.48
2022-11-07T18:26:31.030Z,111.07
2022-11-07T18:29:02.334Z,110.81
2022-11-07T18:31:32.712Z,110.43
2022-11-07T18:34:02.979Z,109.87
2022-11-07T18:36:31.394Z,110.00
2022-11-07T18:39:03.043Z,109.51
2022-11-07T18:41:29.656Z,109.24
2022-11-07T18:44:00.371Z,108.91
2022-11-07T18:46:29.977Z,109.10
2022-11-07T18:48:58.484Z,108.72
2022-11-07T18:51:25.365Z,108.57
2022-11-07T18:53:53.317Z,108.59
2022-11-07T18:56:21.204Z,108.33
2022-11-07T18:58:48.057Z,108.20
2022-11-07T19:01:17.819Z,107.91
2022-11-07T19:03:45.567Z,107.78
2022-11-07T19:06:15.556Z,107.66
2022-11-07T19:08:44.302Z,107.20
2022-11-07T19:11:13.129Z,107.14
2022-11-07T19:13:42.396Z,107.11
2022-11-07T19:16:11.504Z,107.16
2022-11-07T19:18:38.298Z,106.96
2022-11-07T19:21:05.303Z,106.63
2022-11-07T19:23:35.019Z,106.80
2022-11-07T19:26:02.033Z,106.55
2022-11-07T19:28:28.931Z,106.31
2022-11-07T19:30:55.936Z,106.23
2022-11-07T19:33:22.601Z,106.37
2022-11-07T19:35:58.995Z,106.51
2022-11-07T19:38:26.031Z,106.62
2022-11-07T19:40:52.795Z,106.27
2022-11-07T19:43:19.799Z,106.72
2022-11-07T19:45:48.080Z,106.61
2022-11-07T19:48:16.556Z,106.50
2022-11-07T19:50:43.300Z,106.96
2022-11-07T19:53:10.927Z,106.65
2022-11-07T19:55:37.684Z,106.86
2022-11-07T19:58:04.479Z,106.73
2022-11-07T20:00:31.292Z,107.01
2022-11-07T20:02:58.140Z,106.83
2022-11-07T20:05:25.061Z,107.27
2022-11-07T20:07:55.309Z,107.27
2022-11-07T20:10:24.666Z,107.24
2022-11-07T20:12:52.231Z,107.04
2022-11-07T20:15:19.015Z,107.18
2022-11-07T20:17:45.873Z,107.29
2022-11-07T20:20:13.847Z,107.17
2022-11-07T20:22:46.469Z,107.08
2022-11-07T20:25:13.858Z,107.20
2022-11-07T20:27:40.944Z,107.53
2022-11-07T20:30:08.610Z,107.33
2022-11-07T20:32:35.411Z,107.71
2022-11-07T20:35:02.280Z,107.66
2022-11-07T20:37:29.002Z,108.03
2022-11-07T20:39:56.004Z,108.08
2022-11-07T20:42:22.951Z,108.08
2022-11-07T20:44:50.583Z,107.98
2022-11-07T20:47:17.419Z,108.11
2022-11-07T20:49:44.100Z,108.35
2022-11-07T20:52:10.935Z,108.40
2022-11-07T20:54:38.072Z,108.24
2022-11-07T20:57:05.642Z,108.40
2022-11-07T20:59:32.557Z,108.61
2022-11-07T21:02:03.121Z,108.43
2022-11-07T21:04:44.431Z,108.61
2022-11-07T21:07:19.937Z,108.67
2022-11-07T21:09:46.975Z,108.67
2022-11-07T21:12:13.903Z,108.82
2022-11-07T21:14:42.147Z,108.85
2022-11-07T21:17:09.705Z,108.93
2022-11-07T21:19:36.808Z,109.20
2022-11-07T21:22:04.288Z,109.36
2022-11-07T21:24:31.713Z,109.30
2022-11-07T21:26:59.445Z,109.59
2022-11-07T21:29:29.475Z,109.84
2022-11-07T21:31:56.921Z,110.00
2022-11-07T21:34:24.121Z,110.05
2022-11-07T21:36:50.792Z,110.11
2022-11-07T21:39:17.899Z,110.01
2022-11-07T21:41:44.987Z,109.95
2022-11-07T21:44:12.642Z,110.18
2022-11-07T21:46:39.696Z,110.49
2022-11-07T21:49:06.644Z,110.71
2022-11-07T21:51:34.771Z,110.66
2022-11-07T21:54:02.892Z,111.09
2022-11-07T21:56:32.949Z,111.02
2022-11-07T21:59:01.950Z,111.27
2022-11-07T22:01:34.966Z,111.51
2022-11-07T22:04:07.355Z,111.94
2022-11-07T22:06:41.010Z,112.03
2022-11-07T22:09:09.415Z,111.87
2022-11-07T22:11:36.653Z,111.73
2022-11-07T22:14:03.853Z,111.45
2022-11-07T22:16:31.438Z,111.39
2022-11-07T22:18:59.745Z,111.70
2022-11-07T22:21:26.488Z,111.33
2022-11-07T22:23:53.209Z,111.30
2022-11-07T22:26:22.544Z,111.45
2022-11-07T22:28:50.157Z,111.03
2022-11-07T22:31:30.353Z,111.21
2022-11-07T22:33:59.279Z,111.25
2022-11-07T22:36:26.190Z,111.07
2022-11-07T22:38:52.870Z,110.75
2022-11-07T22:41:22.562Z,110.47
2022-11-07T22:43:50.301Z,110.74
2022-11-07T22:46:19.441Z,110.65
2022-11-07T22:48:47.326Z,110.65
2022-11-07T22:51:17.676Z,110.78
2022-11-07T22:53:44.334Z,110.58
2022-11-07T22:56:12.362Z,110.30
2022-11-07T22:58:40.011Z,110.38
2022-11-07T23:01:13.235Z,110.37
2022-11-07T23:03:40.013Z,110.32
2022-11-07T23:06:06.773Z,110.64
2022-11-07T23:08:33.785Z,110.61
2022-11-07T23:13:50.610Z,110.19
2022-11-07T23:16:31.285Z,110.37
2022-11-07T23:19:01.274Z,110.11
2022-11-07T23:21:28.603Z,110.01
2022-11-07T23:23:59.766Z,109.88
2022-11-07T23:26:33.500Z,109.69
2022-11-07T23:29:19.600Z,109.42
2022-11-07T23:31:48.538Z,109.47
2022-11-07T23:34:16.521Z,109.35
2022-11-07T23:36:44.809Z,109.38
2022-11-07T23:39:15.109Z,109.47
2022-11-07T23:41:42.154Z,109.29
2022-11-07T23:44:10.164Z,109.28
2022-11-07T23:46:56.431Z,109.42
2022-11-07T23:49:55.429Z,108.97
2022-11-07T23:52:22.212Z,109.33
2022-11-07T23:55:12.257Z,109.55
2022-11-07T23:57:57.631Z,109.86
